Time;durP1;ratioP1;P1;durP2;ratioP2;P2;SDS_P1;SDS_P2;PMS_P1;PMS_P2;Temp;Humidity;BMP_temperature;BMP_pressure;BME280_temperature;BME280_humidity;BME280_pressure;Samples;Min_cycle;Max_cycle;Signal;HPM_P1;HPM_P2
2023/12/16 00:01:03;;;;;;;10.85;3.65;;;;;;;-8.91;62.16;99902.13;5091532;28;20023;-67
2023/12/16 00:03:28;;;;;;;19.05;4.20;;;;;;;-8.90;62.23;99900.38;5075879;28;20032;-68
2023/12/16 00:05:54;;;;;;;16.17;4.03;;;;;;;-8.92;62.07;99908.16;5071161;28;20058;-68
2023/12/16 00:08:21;;;;;;;16.45;4.20;;;;;;;-8.97;61.99;99894.31;5070934;28;20040;-66
2023/12/16 00:10:47;;;;;;;18.58;4.72;;;;;;;-9.04;62.15;99898.66;5077070;28;20058;-68
2023/12/16 00:13:13;;;;;;;13.70;4.63;;;;;;;-8.95;62.49;99895.16;5091395;28;20443;-66
2023/12/16 00:15:38;;;;;;;17.23;4.05;;;;;;;-8.99;62.09;99889.13;5091382;28;20034;-67
2023/12/16 00:18:04;;;;;;;26.35;4.57;;;;;;;-9.20;62.25;99861.44;5090781;28;20085;-67
2023/12/16 00:20:30;;;;;;;17.70;4.38;;;;;;;-9.12;62.50;99890.84;5090954;28;20462;-67
2023/12/16 00:22:55;;;;;;;14.93;3.97;;;;;;;-9.08;62.76;99899.50;5092354;28;20431;-66
2023/12/16 00:25:21;;;;;;;21.00;3.95;;;;;;;-9.06;62.28;99899.50;5092517;28;20025;-67
2023/12/16 00:27:47;;;;;;;20.40;4.28;;;;;;;-9.10;62.37;99889.13;5091859;28;20481;-67
2023/12/16 00:30:12;;;;;;;19.00;3.83;;;;;;;-9.10;62.63;99898.63;5093540;28;20067;-69
2023/12/16 00:32:39;;;;;;;16.25;4.50;;;;;;;-9.19;62.70;99889.09;5093180;28;20031;-69
2023/12/16 00:35:07;;;;;;;23.25;4.30;;;;;;;-9.16;62.58;99898.63;5084210;28;20118;-68
2023/12/16 00:37:33;;;;;;;18.05;4.20;;;;;;;-9.16;62.52;99909.00;5071556;28;20111;-68
2023/12/16 00:39:59;;;;;;;16.48;4.10;;;;;;;-9.21;62.85;99906.41;5058448;28;20360;-68
2023/12/16 00:42:24;;;;;;;17.52;4.53;;;;;;;-9.21;62.90;99914.16;5072312;28;20040;-68
2023/12/16 00:44:50;;;;;;;13.77;3.97;;;;;;;-9.19;62.86;99914.19;5072170;28;20408;-66
2023/12/16 00:47:16;;;;;;;18.33;4.28;;;;;;;-9.45;62.98;99871.78;5072794;28;20436;-69
2023/12/16 00:49:41;;;;;;;12.95;3.58;;;;;;;-9.16;63.03;99915.06;5077738;28;20039;-69
2023/12/16 00:52:07;;;;;;;15.93;3.88;;;;;;;-9.14;62.96;99922.84;5092375;28;20325;-68
2023/12/16 00:54:32;;;;;;;25.90;5.03;;;;;;;-9.11;63.11;99923.72;5091906;28;20035;-69
2023/12/16 00:56:58;;;;;;;17.63;4.45;;;;;;;-9.13;63.19;99921.97;5092431;28;20062;-68
2023/12/16 00:59:26;;;;;;;27.52;4.10;;;;;;;-9.34;63.07;99874.38;5091792;28;20035;-69
2023/12/16 01:01:52;;;;;;;14.50;3.90;;;;;;;-9.05;62.84;99922.00;5092143;28;20039;-64
2023/12/16 01:04:18;;;;;;;17.73;4.88;;;;;;;-9.00;63.01;99925.44;5078914;28;20441;-68
2023/12/16 01:06:43;;;;;;;18.60;5.20;;;;;;;-9.02;62.38;99911.59;5072438;28;20043;-67
2023/12/16 01:09:10;;;;;;;19.02;4.75;;;;;;;-9.00;62.88;99918.53;5070910;28;20040;-67
2023/12/16 01:11:36;;;;;;;16.20;4.78;;;;;;;-9.02;62.83;99919.38;5070638;28;20020;-68
2023/12/16 01:14:02;;;;;;;19.55;4.80;;;;;;;-8.99;62.52;99911.59;5071583;28;20036;-67
2023/12/16 01:16:27;;;;;;;23.65;5.50;;;;;;;-9.01;62.50;99923.72;5072176;28;20359;-68
2023/12/16 01:18:53;;;;;;;20.95;4.72;;;;;;;-9.04;62.52;99915.94;5083073;28;20140;-68
2023/12/16 01:21:19;;;;;;;13.43;3.83;;;;;;;-9.10;62.81;99922.84;5091779;28;20457;-68
2023/12/16 01:23:45;;;;;;;16.10;3.97;;;;;;;-9.11;63.17;99931.50;5091449;28;20393;-68
2023/12/16 01:26:11;;;;;;;16.25;4.00;;;;;;;-9.07;63.05;99934.94;5092104;28;20462;-67
2023/12/16 01:28:38;;;;;;;27.20;5.05;;;;;;;-8.98;63.27;99941.88;5091910;28;20080;-68
2023/12/16 01:31:04;;;;;;;21.52;4.25;;;;;;;-9.17;63.00;99897.75;5089812;28;20101;-69
2023/12/16 01:33:29;;;;;;;20.20;4.68;;;;;;;-8.84;62.87;99950.53;5080698;28;20415;-67
2023/12/16 01:35:55;;;;;;;13.95;4.18;;;;;;;-8.80;62.94;99956.59;5072258;28;20071;-67
2023/12/16 01:38:22;;;;;;;12.02;4.05;;;;;;;-8.72;62.75;99957.47;5072435;28;20032;-67
2023/12/16 01:40:48;;;;;;;15.85;4.18;;;;;;;-8.63;62.63;99955.75;5071325;28;20032;-68
2023/12/16 01:43:13;;;;;;;24.88;4.35;;;;;;;-8.69;63.00;99951.41;5071764;28;20033;-68
2023/12/16 01:45:39;;;;;;;19.17;4.32;;;;;;;-8.53;62.80;99966.13;5072973;28;20340;-68
2023/12/16 01:48:06;;;;;;;16.15;4.53;;;;;;;-8.46;62.34;99971.28;5087686;28;20115;-67
2023/12/16 01:50:35;;;;;;;19.35;4.53;;;;;;;-8.39;62.53;99980.81;5094772;28;20042;-68
2023/12/16 01:53:03;;;;;;;11.95;4.13;;;;;;;-8.36;62.42;99981.66;5095663;28;20028;-67
2023/12/16 01:55:29;;;;;;;12.40;4.07;;;;;;;-8.22;62.01;99989.44;5094297;28;20047;-67
2023/12/16 01:57:55;;;;;;;16.83;4.18;;;;;;;-8.23;62.31;99998.09;5079094;28;20086;-65
2023/12/16 02:00:23;;;;;;;17.83;4.57;;;;;;;-8.22;62.21;99997.22;5087178;28;20028;-67
2023/12/16 02:02:49;;;;;;;16.13;4.32;;;;;;;-8.20;62.25;100002.44;5092640;28;20127;-67
2023/12/16 02:05:15;;;;;;;16.52;4.22;;;;;;;-8.16;61.74;100003.31;5095399;28;20592;-68
2023/12/16 02:07:43;;;;;;;14.55;3.90;;;;;;;-8.18;62.19;99994.66;5095099;28;20031;-68
2023/12/16 02:10:09;;;;;;;18.50;3.78;;;;;;;-8.11;62.22;100006.75;5085031;28;20033;-67
2023/12/16 02:12:35;;;;;;;23.33;3.72;;;;;;;-8.35;62.20;99956.56;5074738;28;20072;-68
2023/12/16 02:15:02;;;;;;;18.08;4.50;;;;;;;-8.01;61.96;100012.81;5074105;28;20044;-67
2023/12/16 02:17:34;;;;;;;14.00;3.78;;;;;;;-7.99;61.93;100006.72;5082055;28;20426;-67
2023/12/16 02:20:20;;;;;;;9.20;3.90;;;;;;;-7.89;61.73;100017.97;5082868;28;20043;-67
2023/12/16 02:22:46;;;;;;;12.75;3.70;;;;;;;-7.80;61.52;100017.97;5074814;28;20893;-65
2023/12/16 02:25:13;;;;;;;15.00;4.15;;;;;;;-7.85;61.65;100019.69;5074617;28;20115;-67
2023/12/16 02:27:41;;;;;;;16.52;4.25;;;;;;;-8.04;61.61;99989.44;5074765;28;20056;-67
2023/12/16 02:30:08;;;;;;;17.45;4.80;;;;;;;-7.91;61.40;100008.47;5082451;28;20071;-67
2023/12/16 02:32:34;;;;;;;18.67;4.38;;;;;;;-7.89;61.31;100017.13;5084515;28;20474;-68
2023/12/16 02:34:59;;;;;;;18.27;4.22;;;;;;;-8.00;61.88;100014.53;5073429;28;20071;-67
2023/12/16 02:37:25;;;;;;;15.63;4.32;;;;;;;-7.94;61.75;100028.41;5074427;28;20024;-68
2023/12/16 02:39:50;;;;;;;16.73;4.15;;;;;;;-7.90;61.96;100033.59;5079346;28;20032;-68
2023/12/16 02:42:16;;;;;;;17.30;4.00;;;;;;;-7.91;62.04;100017.09;5094560;28;20032;-67
2023/12/16 02:44:42;;;;;;;16.77;4.50;;;;;;;-7.86;61.94;100027.50;5094019;28;20093;-67
2023/12/16 02:47:08;;;;;;;11.80;3.97;;;;;;;-7.83;62.11;100030.09;5091844;28;20055;-68
2023/12/16 02:49:33;;;;;;;20.35;3.72;;;;;;;-7.78;62.03;100028.34;5089925;28;20024;-67
2023/12/16 02:51:59;;;;;;;11.77;3.85;;;;;;;-7.83;61.94;100023.19;5081943;28;20469;-67
2023/12/16 02:54:26;;;;;;;18.13;5.18;;;;;;;-7.97;62.29;99994.59;5095113;28;20473;-69
2023/12/16 02:56:51;;;;;;;11.30;4.25;;;;;;;-7.75;62.73;100024.88;5093998;28;20043;-68
2023/12/16 02:59:17;;;;;;;15.52;4.50;;;;;;;-7.74;62.61;100018.81;5092503;28;20024;-68
2023/12/16 03:01:43;;;;;;;13.40;4.30;;;;;;;-8.05;62.60;99959.13;5093760;28;20158;-67
2023/12/16 03:04:08;;;;;;;17.35;4.72;;;;;;;-7.67;62.35;100023.13;5093584;28;20118;-68
2023/12/16 03:06:35;;;;;;;19.80;4.85;;;;;;;-7.63;62.76;100032.63;5094182;28;20119;-68
2023/12/16 03:09:01;;;;;;;11.48;5.05;;;;;;;-7.72;62.76;100004.91;5091469;28;21650;-67
2023/12/16 03:11:27;;;;;;;13.98;4.88;;;;;;;-7.62;62.62;100021.38;5094690;28;20039;-68
2023/12/16 03:13:53;;;;;;;14.40;4.05;;;;;;;-7.67;63.21;100002.31;5094619;28;20036;-67
2023/12/16 03:16:19;;;;;;;16.30;4.70;;;;;;;-7.61;62.93;100011.84;5093864;28;20147;-67
2023/12/16 03:18:44;;;;;;;18.10;4.93;;;;;;;-7.65;62.91;100011.84;5093464;28;20024;-67
2023/12/16 03:21:10;;;;;;;20.70;4.18;;;;;;;-7.70;62.81;100005.81;5077604;28;20417;-68
2023/12/16 03:23:36;;;;;;;14.07;4.93;;;;;;;-7.62;63.34;100021.38;5056405;28;20024;-68
2023/12/16 03:26:02;;;;;;;13.88;4.22;;;;;;;-7.64;63.34;100020.50;5084779;28;20027;-64
2023/12/16 03:28:28;;;;;;;15.40;4.20;;;;;;;-7.59;63.38;100033.50;5094058;28;20044;-68
2023/12/16 03:30:54;;;;;;;17.23;5.03;;;;;;;-7.53;63.13;100029.16;5090375;28;20105;-67
2023/12/16 03:33:19;;;;;;;17.85;4.55;;;;;;;-7.52;63.41;100022.19;5073637;28;20029;-68
2023/12/16 03:35:45;;;;;;;18.85;4.60;;;;;;;-7.47;63.06;100041.28;5073550;28;20040;-68
2023/12/16 03:38:11;;;;;;;18.90;5.03;;;;;;;-7.50;63.30;100031.75;5072790;28;20020;-68
2023/12/16 03:40:36;;;;;;;22.45;5.00;;;;;;;-7.49;63.22;100035.19;5084452;28;20063;-67
2023/12/16 03:43:02;;;;;;;11.35;4.47;;;;;;;-7.46;63.54;100027.41;5094086;28;20055;-67
2023/12/16 03:45:27;;;;;;;15.65;4.75;;;;;;;-7.50;63.07;100017.84;5091162;28;20032;-67
2023/12/16 03:47:53;;;;;;;16.33;4.97;;;;;;;-7.45;63.40;100021.34;5080025;28;20528;-68
2023/12/16 03:50:18;;;;;;;14.98;4.82;;;;;;;-7.41;63.40;100014.34;5081768;28;20054;-67
2023/12/16 03:52:44;;;;;;;17.02;4.97;;;;;;;-7.45;63.06;100003.13;5093650;28;20093;-67
2023/12/16 03:55:10;;;;;;;18.52;5.30;;;;;;;-7.37;63.22;100018.66;5091981;28;20032;-66
2023/12/16 03:57:35;;;;;;;19.20;5.20;;;;;;;-7.28;63.19;100029.06;5093192;28;20043;-68
2023/12/16 04:00:01;;;;;;;19.00;5.30;;;;;;;-7.31;63.29;100016.06;5085748;28;20039;-63
2023/12/16 04:02:29;;;;;;;22.27;5.55;;;;;;;-7.23;63.44;100037.72;5072994;28;20036;-67
2023/12/16 04:04:55;;;;;;;19.05;5.95;;;;;;;-7.18;63.22;100029.88;5055278;28;20024;-68
2023/12/16 04:07:20;;;;;;;19.10;5.45;;;;;;;-7.19;63.29;100014.28;5071769;28;20032;-67
2023/12/16 04:09:46;;;;;;;25.55;5.68;;;;;;;-7.11;63.06;100034.19;5076774;28;20016;-68
2023/12/16 04:12:13;;;;;;;18.48;5.47;;;;;;;-7.08;63.28;100021.16;5093136;28;20096;-67
2023/12/16 04:14:39;;;;;;;21.58;6.20;;;;;;;-7.19;63.18;100020.34;5067125;28;20032;-67
2023/12/16 04:17:05;;;;;;;24.98;6.28;;;;;;;-7.12;63.57;100021.16;5078696;28;20082;-69
2023/12/16 04:19:31;;;;;;;16.55;6.15;;;;;;;-7.12;62.86;100026.38;5090379;28;20028;-68
2023/12/16 04:21:57;;;;;;;21.70;6.40;;;;;;;-7.09;63.16;100035.03;5072466;28;20447;-68
2023/12/16 04:24:22;;;;;;;18.73;5.93;;;;;;;-7.11;63.76;100051.56;5072729;28;20033;-68
2023/12/16 04:26:48;;;;;;;22.88;6.75;;;;;;;-7.03;63.92;100062.78;5072272;28;20043;-69
2023/12/16 04:29:14;;;;;;;22.40;6.13;;;;;;;-7.00;63.73;100059.28;5076202;28;20044;-67
2023/12/16 04:31:40;;;;;;;20.20;5.72;;;;;;;-6.93;63.33;100066.22;5091733;28;20044;-68
2023/12/16 04:34:06;;;;;;;17.45;6.53;;;;;;;-6.95;63.48;100050.59;5092561;28;20032;-67
2023/12/16 04:36:31;;;;;;;20.50;7.07;;;;;;;-6.90;63.26;100057.50;5091764;28;20077;-69
2023/12/16 04:38:57;;;;;;;24.60;7.07;;;;;;;-6.90;63.32;100068.78;5080759;28;20075;-68
2023/12/16 04:41:23;;;;;;;22.20;6.47;;;;;;;-6.87;63.59;100063.56;5072578;28;20035;-69
2023/12/16 04:43:48;;;;;;;27.10;6.57;;;;;;;-6.84;63.93;100071.34;5074706;28;20491;-67
2023/12/16 04:46:23;;;;;;;19.27;5.78;;;;;;;-6.99;63.85;100027.16;5092249;28;20046;-68
2023/12/16 04:48:48;;;;;;;22.42;6.50;;;;;;;-6.75;63.93;100075.66;5088855;28;20105;-67
2023/12/16 04:51:14;;;;;;;21.20;6.50;;;;;;;-6.74;63.55;100076.53;5072419;28;20471;-67
2023/12/16 04:53:40;;;;;;;19.42;6.50;;;;;;;-6.69;64.30;100079.97;5071801;28;20356;-67
2023/12/16 04:56:06;;;;;;;18.23;5.75;;;;;;;-6.65;64.36;100084.28;5072381;28;20064;-66
2023/12/16 04:58:32;;;;;;;27.77;7.60;;;;;;;-6.72;63.57;100062.59;5073909;28;20020;-68
2023/12/16 05:00:57;;;;;;;29.20;7.10;;;;;;;-6.61;63.66;100070.34;5073086;28;20574;-67
2023/12/16 05:03:23;;;;;;;20.92;7.28;;;;;;;-6.63;64.14;100087.72;5071844;28;20032;-68
2023/12/16 05:05:49;;;;;;;24.13;7.63;;;;;;;-6.66;64.38;100087.75;5072643;28;20043;-67
2023/12/16 05:08:15;;;;;;;24.15;7.38;;;;;;;-6.63;64.41;100090.34;5073498;28;20030;-67
2023/12/16 05:10:41;;;;;;;23.55;7.00;;;;;;;-6.61;64.56;100088.59;5091210;28;20359;-67
2023/12/16 05:13:10;;;;;;;22.05;7.55;;;;;;;-6.58;64.68;100096.38;5090962;28;20455;-67
2023/12/16 05:15:39;;;;;;;22.73;7.65;;;;;;;-6.82;64.71;100043.56;5073999;28;20060;-64
2023/12/16 05:18:06;;;;;;;22.50;7.78;;;;;;;-6.58;64.95;100083.34;5077382;28;20039;-67
2023/12/16 05:20:32;;;;;;;29.15;8.52;;;;;;;-6.56;65.17;100089.41;5089958;28;20020;-67
2023/12/16 05:22:59;;;;;;;29.33;8.57;;;;;;;-6.46;64.96;100110.22;5091847;28;20024;-66
2023/12/16 05:25:28;;;;;;;28.25;8.73;;;;;;;-6.47;64.53;100100.69;5094903;28;20040;-67
2023/12/16 05:27:54;;;;;;;29.10;8.48;;;;;;;-6.41;65.11;100108.44;5095220;28;20056;-67
2023/12/16 05:30:20;;;;;;;20.50;7.85;;;;;;;-6.38;64.88;100118.84;5079304;28;20037;-67
2023/12/16 05:32:45;;;;;;;22.98;7.95;;;;;;;-6.41;64.86;100106.69;5091843;28;20111;-68
2023/12/16 05:35:11;;;;;;;27.30;8.32;;;;;;;-6.35;65.04;100113.59;5095962;28;20028;-67
2023/12/16 05:37:36;;;;;;;21.55;7.68;;;;;;;-6.28;65.13;100119.66;5095853;28;20028;-66
2023/12/16 05:40:03;;;;;;;21.33;8.32;;;;;;;-6.32;65.40;100110.97;5081189;28;20059;-68
2023/12/16 05:42:30;;;;;;;19.23;7.78;;;;;;;-6.40;65.02;100097.16;5058071;28;20075;-67
2023/12/16 05:44:56;;;;;;;25.08;8.85;;;;;;;-6.23;64.92;100123.97;5075688;28;20060;-67
2023/12/16 05:47:22;;;;;;;19.63;7.13;;;;;;;-6.12;64.99;100142.13;5090832;28;20119;-67
2023/12/16 05:49:47;;;;;;;23.40;8.52;;;;;;;-6.12;64.71;100136.03;5093597;28;20089;-68
2023/12/16 05:52:13;;;;;;;27.42;8.45;;;;;;;-6.02;64.85;100142.94;5095630;28;20028;-68
2023/12/16 05:54:39;;;;;;;23.67;8.45;;;;;;;-6.03;64.88;100146.41;5095129;28;20127;-66
2023/12/16 05:57:04;;;;;;;23.48;7.88;;;;;;;-6.01;65.13;100136.84;5095401;28;20123;-67
2023/12/16 05:59:30;;;;;;;23.13;8.23;;;;;;;-5.93;65.05;100153.25;5085614;28;20059;-67
2023/12/16 06:01:55;;;;;;;25.15;8.60;;;;;;;-5.96;65.12;100129.81;5075113;28;20037;-65
2023/12/16 06:04:22;;;;;;;22.90;8.73;;;;;;;-5.83;64.26;100147.94;5077560;28;20236;-67
2023/12/16 06:06:47;;;;;;;26.65;8.75;;;;;;;-5.86;64.29;100135.81;5092129;28;20096;-66
2023/12/16 06:09:14;;;;;;;29.17;8.60;;;;;;;-5.92;64.70;100128.91;5090428;28;20035;-65
2023/12/16 06:11:39;;;;;;;25.73;9.05;;;;;;;-5.82;64.71;100147.97;5095531;28;20110;-63
2023/12/16 06:14:05;;;;;;;30.33;8.35;;;;;;;-5.79;64.63;100139.22;5095322;28;20210;-66
2023/12/16 06:16:30;;;;;;;29.75;9.68;;;;;;;-5.78;65.11;100140.97;5086479;28;20043;-66
2023/12/16 06:18:56;;;;;;;20.67;8.57;;;;;;;-5.73;64.64;100144.41;5082530;28;20035;-63
2023/12/16 06:21:21;;;;;;;25.85;8.93;;;;;;;-5.69;64.74;100140.88;5094032;28;20027;-66
2023/12/16 06:23:47;;;;;;;23.98;9.18;;;;;;;-5.63;65.21;100156.47;5094894;28;20111;-67
2023/12/16 06:26:12;;;;;;;20.67;7.18;;;;;;;-5.65;64.42;100134.75;5095071;28;20024;-66
2023/12/16 06:28:38;;;;;;;21.55;7.82;;;;;;;-5.58;64.56;100148.63;5095096;28;20063;-66
2023/12/16 06:31:04;;;;;;;25.55;8.68;;;;;;;-5.56;65.01;100145.97;5094564;28;20044;-66
2023/12/16 06:33:29;;;;;;;22.85;9.13;;;;;;;-5.45;64.52;100149.38;5087632;28;20017;-65
2023/12/16 06:35:55;;;;;;;20.67;8.73;;;;;;;-5.41;64.57;100153.69;5073704;28;20036;-67
2023/12/16 06:38:21;;;;;;;22.80;8.57;;;;;;;-5.40;64.36;100133.69;5073197;28;20036;-66
2023/12/16 06:40:46;;;;;;;21.05;8.27;;;;;;;-5.34;64.24;100137.06;5075078;28;20024;-64
2023/12/16 06:43:12;;;;;;;25.60;8.20;;;;;;;-5.19;64.63;100156.06;5074424;28;20047;-68
2023/12/16 06:45:38;;;;;;;22.20;8.43;;;;;;;-5.19;64.00;100138.66;5074801;28;20053;-65
2023/12/16 06:48:04;;;;;;;21.17;8.77;;;;;;;-5.08;64.21;100143.75;5074054;28;20456;-66
2023/12/16 06:50:30;;;;;;;20.20;8.32;;;;;;;-5.07;64.10;100142.88;5074040;28;20433;-65
2023/12/16 06:52:56;;;;;;;24.17;8.05;;;;;;;-5.02;64.54;100148.06;5074694;28;20103;-70
2023/12/16 06:55:21;;;;;;;21.25;7.88;;;;;;;-4.96;64.01;100157.56;5075296;28;20490;-69
2023/12/16 06:57:47;;;;;;;24.88;8.30;;;;;;;-4.95;64.23;100147.09;5073927;28;20033;-69
2023/12/16 07:00:13;;;;;;;22.00;8.43;;;;;;;-4.92;63.85;100146.19;5085030;28;20038;-66
2023/12/16 07:02:43;;;;;;;22.75;8.00;;;;;;;-4.83;64.25;100147.84;5074631;28;20085;-67
2023/12/16 07:05:12;;;;;;;22.00;8.98;;;;;;;-4.74;64.02;100152.09;5086694;28;20032;-65
2023/12/16 07:07:38;;;;;;;21.27;9.00;;;;;;;-4.64;63.95;100154.56;5093967;28;20039;-66
2023/12/16 07:10:07;;;;;;;23.70;9.38;;;;;;;-4.77;64.00;100121.63;5093803;28;20032;-66
2023/12/16 07:12:33;;;;;;;22.45;8.63;;;;;;;-4.36;63.07;100169.00;5094377;28;20032;-65
2023/12/16 07:14:59;;;;;;;20.42;8.60;;;;;;;-4.34;63.42;100144.59;5082617;28;20039;-70
2023/12/16 07:17:24;;;;;;;20.25;8.13;;;;;;;-4.32;63.48;100160.25;5073475;28;20044;-69
2023/12/16 07:19:50;;;;;;;18.50;8.60;;;;;;;-4.27;63.35;100163.66;5073354;28;20054;-68
2023/12/16 07:22:16;;;;;;;20.15;8.27;;;;;;;-4.28;63.60;100155.84;5091728;28;20117;-66
2023/12/16 07:24:43;;;;;;;22.52;8.60;;;;;;;-4.16;63.08;100171.34;5110571;28;20032;-66
2023/12/16 07:27:08;;;;;;;22.10;9.00;;;;;;;-4.45;63.48;100122.09;5113704;28;20042;-65
2023/12/16 07:29:35;;;;;;;22.38;8.68;;;;;;;-4.14;63.43;100172.19;5089128;28;20040;-66
2023/12/16 07:32:01;;;;;;;17.23;7.35;;;;;;;-4.09;63.34;100180.84;5092495;28;20036;-66
2023/12/16 07:34:26;;;;;;;19.80;8.23;;;;;;;-4.10;63.24;100179.09;5093211;28;20529;-66
2023/12/16 07:36:52;;;;;;;20.05;8.63;;;;;;;-4.06;63.80;100177.31;5092754;28;20035;-65
2023/12/16 07:39:18;;;;;;;22.98;7.70;;;;;;;-4.03;63.13;100177.28;5093084;28;20024;-65
2023/12/16 07:41:44;;;;;;;19.58;7.95;;;;;;;-3.99;63.09;100172.84;5092402;28;20039;-65
2023/12/16 07:44:11;;;;;;;20.77;7.47;;;;;;;-3.96;63.16;100176.28;5088264;28;20346;-66
2023/12/16 07:46:39;;;;;;;17.70;7.80;;;;;;;-3.92;63.23;100177.13;5099931;28;20031;-62
2023/12/16 07:49:05;;;;;;;22.38;8.07;;;;;;;-3.87;62.90;100180.53;5111931;28;20043;-69
2023/12/16 07:51:30;;;;;;;20.58;8.23;;;;;;;-4.08;63.26;100132.03;5105985;28;20039;-67
2023/12/16 07:53:56;;;;;;;23.67;8.27;;;;;;;-3.82;63.28;100165.59;5071033;28;20040;-67
2023/12/16 07:56:23;;;;;;;23.02;9.20;;;;;;;-3.67;63.30;100177.56;5091581;28;20030;-67
2023/12/16 07:58:52;;;;;;;21.95;8.73;;;;;;;-3.69;63.19;100175.88;5089528;28;20039;-69
2023/12/16 08:01:18;;;;;;;20.20;7.68;;;;;;;-3.68;63.20;100168.00;5089710;28;20453;-67
2023/12/16 08:03:45;;;;;;;23.35;8.25;;;;;;;-3.61;63.04;100176.63;5092179;28;20028;-66
2023/12/16 08:06:11;;;;;;;25.83;9.48;;;;;;;-3.55;63.17;100178.28;5092932;28;20028;-68
2023/12/16 08:08:40;;;;;;;25.58;8.55;;;;;;;-3.52;63.22;100188.69;5093246;28;20119;-68
2023/12/16 08:11:06;;;;;;;19.88;8.27;;;;;;;-3.50;63.63;100192.16;5092080;28;20035;-68
2023/12/16 08:13:32;;;;;;;19.52;8.02;;;;;;;-3.51;63.14;100196.50;5092716;28;20104;-66
2023/12/16 08:15:58;;;;;;;23.10;8.25;;;;;;;-3.43;62.87;100195.53;5091338;28;20071;-68
2023/12/16 08:18:25;;;;;;;26.30;8.55;;;;;;;-3.44;63.16;100199.88;5092847;28;20104;-68
2023/12/16 08:20:50;;;;;;;18.08;8.18;;;;;;;-3.41;62.90;100196.38;5092421;28;20043;-68
2023/12/16 08:23:16;;;;;;;18.00;7.70;;;;;;;-3.33;62.82;100187.50;5092032;28;20020;-68
2023/12/16 08:25:42;;;;;;;22.08;8.32;;;;;;;-3.26;63.09;100195.22;5092415;28;20031;-69
2023/12/16 08:28:07;;;;;;;19.55;7.55;;;;;;;-3.29;62.72;100167.34;5092376;28;20074;-70
2023/12/16 08:30:33;;;;;;;20.65;8.30;;;;;;;-3.14;62.43;100192.38;5091139;28;20067;-69
2023/12/16 08:32:59;;;;;;;20.02;8.23;;;;;;;-3.35;62.65;100136.91;5072670;28;20460;-69
2023/12/16 08:35:24;;;;;;;20.63;8.10;;;;;;;-3.11;62.75;100173.13;5071179;28;20042;-70
2023/12/16 08:37:50;;;;;;;20.92;7.95;;;;;;;-3.00;62.81;100186.91;5072477;28;20056;-68
2023/12/16 08:40:15;;;;;;;21.58;8.43;;;;;;;-2.97;63.05;100183.34;5077934;28;20399;-68
2023/12/16 08:42:42;;;;;;;15.93;7.50;;;;;;;-2.94;62.55;100178.06;5091599;28;20039;-69
2023/12/16 08:45:12;;;;;;;21.13;7.75;;;;;;;-2.90;62.81;100188.44;5090625;28;20032;-69
2023/12/16 08:47:38;;;;;;;21.73;7.78;;;;;;;-2.84;62.55;100181.34;5072917;28;20028;-69
2023/12/16 08:50:05;;;;;;;20.88;7.70;;;;;;;-2.74;62.60;100180.31;5073713;28;20039;-68
2023/12/16 08:52:31;;;;;;;14.05;7.53;;;;;;;-2.72;62.52;100170.66;5089653;28;20028;-69
2023/12/16 08:54:57;;;;;;;17.50;8.35;;;;;;;-2.60;62.11;100183.50;5092156;28;20047;-69
2023/12/16 08:57:23;;;;;;;17.67;7.50;;;;;;;-2.80;62.11;100144.59;5091739;28;20028;-69
2023/12/16 08:59:49;;;;;;;22.23;8.55;;;;;;;-2.56;62.19;100172.94;5090411;28;20024;-69
2023/12/16 09:02:15;;;;;;;14.82;7.18;;;;;;;-2.41;62.16;100193.59;5072774;28;20028;-68
2023/12/16 09:04:40;;;;;;;21.10;7.30;;;;;;;-2.34;61.78;100182.06;5080333;28;20472;-69
2023/12/16 09:07:06;;;;;;;18.10;8.13;;;;;;;-2.25;61.88;100188.03;5091819;28;20027;-68
2023/12/16 09:09:32;;;;;;;15.27;6.90;;;;;;;-2.15;60.68;100191.31;5092717;28;20370;-68
2023/12/16 09:11:57;;;;;;;17.05;7.60;;;;;;;-2.15;61.56;100189.53;5092253;28;20380;-67
2023/12/16 09:14:23;;;;;;;15.07;7.38;;;;;;;-2.08;61.24;100187.66;5088833;28;20043;-68
2023/12/16 09:16:48;;;;;;;17.35;6.95;;;;;;;-2.03;61.15;100181.41;5072263;28;20035;-68
2023/12/16 09:19:14;;;;;;;14.90;6.70;;;;;;;-2.15;60.89;100139.69;5072617;28;20142;-68
2023/12/16 09:21:41;;;;;;;17.90;7.18;;;;;;;-1.90;60.70;100187.25;5071976;28;20465;-69
2023/12/16 09:24:07;;;;;;;17.20;7.00;;;;;;;-1.97;61.02;100177.75;5071952;28;20048;-69
2023/12/16 09:26:33;;;;;;;19.20;7.45;;;;;;;-2.00;61.18;100195.34;5072128;28;20024;-68
2023/12/16 09:29:00;;;;;;;17.95;7.50;;;;;;;-2.08;61.05;100203.41;5073389;28;20036;-68
2023/12/16 09:31:26;;;;;;;20.23;7.38;;;;;;;-2.06;60.98;100191.94;5092123;28;20032;-68
2023/12/16 09:33:52;;;;;;;17.17;7.20;;;;;;;-2.11;61.71;100198.22;5091396;28;20095;-68
2023/12/16 09:36:17;;;;;;;18.40;7.55;;;;;;;-2.09;61.39;100194.66;5092619;28;20055;-68
2023/12/16 09:38:43;;;;;;;17.20;6.63;;;;;;;-2.08;61.70;100183.25;5086922;28;20409;-68
2023/12/16 09:41:21;;;;;;;21.33;7.57;;;;;;;-2.19;61.69;100138.91;5071549;28;20028;-68
2023/12/16 09:43:50;;;;;;;17.05;7.35;;;;;;;-1.85;61.56;100200.22;5072540;28;20405;-68
2023/12/16 09:46:18;;;;;;;18.67;6.43;;;;;;;-1.81;60.96;100190.53;5091826;28;20120;-69
2023/12/16 09:48:43;;;;;;;20.40;7.95;;;;;;;-1.76;60.93;100178.16;5091945;28;20040;-68
2023/12/16 09:51:09;;;;;;;15.82;7.07;;;;;;;-1.64;61.05;100179.63;5091590;28;20047;-68
2023/12/16 09:53:35;;;;;;;18.60;6.88;;;;;;;-1.61;60.42;100179.53;5091438;28;20028;-66
2023/12/16 09:56:00;;;;;;;16.42;7.03;;;;;;;-1.64;60.54;100177.88;5091758;28;20124;-68
2023/12/16 09:58:29;;;;;;;19.23;7.15;;;;;;;-1.66;61.07;100184.94;5087227;28;20032;-68
2023/12/16 10:00:56;;;;;;;15.65;6.88;;;;;;;-1.55;61.05;100203.03;5103446;28;20039;-68
2023/12/16 10:03:22;;;;;;;12.90;6.80;;;;;;;-1.49;60.87;100188.88;5091981;28;20019;-68
2023/12/16 10:05:50;;;;;;;17.33;7.07;;;;;;;-1.48;61.10;100196.72;5090957;28;20030;-68
2023/12/16 10:08:15;;;;;;;15.00;6.88;;;;;;;-1.43;60.70;100185.25;5087094;28;20336;-68
2023/12/16 10:10:42;;;;;;;16.83;6.35;;;;;;;-1.44;60.26;100187.03;5093687;28;20068;-69
2023/12/16 10:13:08;;;;;;;13.85;6.88;;;;;;;-1.50;60.54;100174.03;5093606;28;20032;-69
2023/12/16 10:15:34;;;;;;;16.25;6.18;;;;;;;-1.52;60.99;100191.59;5076419;28;20128;-67
2023/12/16 10:18:01;;;;;;;12.88;6.40;;;;;;;-1.59;61.24;100190.88;5078478;28;20099;-69
2023/12/16 10:20:28;;;;;;;15.15;6.40;;;;;;;-1.50;61.20;100195.91;5095250;28;20028;-68
2023/12/16 10:22:53;;;;;;;15.18;5.97;;;;;;;-1.51;61.40;100194.19;5095006;28;20043;-68
2023/12/16 10:25:19;;;;;;;14.02;6.70;;;;;;;-1.61;60.81;100166.41;5077998;28;20035;-69
2023/12/16 10:27:46;;;;;;;15.38;6.53;;;;;;;-1.69;61.33;100168.38;5094839;28;20121;-68
2023/12/16 10:30:12;;;;;;;12.45;5.70;;;;;;;-1.61;61.16;100174.28;5093078;28;20029;-67
2023/12/16 10:32:39;;;;;;;16.88;5.97;;;;;;;-1.53;61.63;100195.13;5094924;28;20348;-68
2023/12/16 10:35:06;;;;;;;12.35;6.65;;;;;;;-1.53;61.42;100190.75;5094328;28;20358;-68
2023/12/16 10:37:32;;;;;;;16.73;6.97;;;;;;;-1.51;61.39;100186.31;5094898;28;20028;-67
2023/12/16 10:39:58;;;;;;;18.45;6.35;;;;;;;-1.51;61.36;100191.56;5092985;28;20036;-67
2023/12/16 10:42:24;;;;;;;9.30;5.60;;;;;;;-1.52;61.59;100207.34;5078182;28;20512;-67
2023/12/16 10:44:52;;;;;;;20.13;6.20;;;;;;;-1.51;61.67;100193.31;5091051;28;20028;-70
2023/12/16 10:47:19;;;;;;;15.45;7.25;;;;;;;-1.56;61.53;100201.31;5101640;28;20088;-69
2023/12/16 10:49:45;;;;;;;17.42;7.35;;;;;;;-1.60;62.18;100205.78;5113219;28;20023;-67
2023/12/16 10:52:12;;;;;;;12.20;6.18;;;;;;;-1.61;62.20;100195.28;5113221;28;20040;-67
2023/12/16 10:54:44;;;;;;;12.18;6.03;;;;;;;-1.56;62.24;100195.19;5101513;28;20029;-66
2023/12/16 10:57:37;;;;;;;13.02;5.70;;;;;;;-1.51;62.71;100193.31;5090854;28;20032;-68
2023/12/16 11:00:05;;;;;;;11.63;5.75;;;;;;;-1.62;62.41;100194.44;5072277;28;20477;-67
2023/12/16 11:02:42;;;;;;;13.90;6.75;;;;;;;-1.66;63.23;100198.06;5072399;28;20478;-68
2023/12/16 11:05:29;;;;;;;10.00;5.38;;;;;;;-1.56;62.46;100190.81;5074026;28;20043;-68
2023/12/16 11:07:57;;;;;;;10.00;5.65;;;;;;;-1.74;62.69;100186.84;5074015;28;20082;-65
2023/12/16 11:10:23;;;;;;;10.38;5.68;;;;;;;-1.77;63.08;100198.31;5074305;28;20025;-67
2023/12/16 11:12:51;;;;;;;10.77;6.10;;;;;;;-1.98;63.20;100155.03;5079719;28;20072;-67
2023/12/16 11:15:17;;;;;;;11.82;6.13;;;;;;;-1.82;63.16;100188.81;5094437;28;20442;-67